sensor_id;sensor_type;location;lat;lon;timestamp;P1;durP1;ratioP1;P2;durP2;ratioP2
37201;SDS011;37799;52.390;6.136;2022-08-19T00:00:49;6.90;;;2.75;;
37201;SDS011;37799;52.390;6.136;2022-08-19T00:03:15;6.13;;;2.60;;
37201;SDS011;37799;52.390;6.136;2022-08-19T00:05:41;6.28;;;2.63;;
37201;SDS011;37799;52.390;6.136;2022-08-19T00:08:06;7.03;;;2.50;;
37201;SDS011;37799;52.390;6.136;2022-08-19T00:10:31;7.32;;;2.60;;
37201;SDS011;37799;52.390;6.136;2022-08-19T00:12:58;7.30;;;2.58;;
37201;SDS011;37799;52.390;6.136;2022-08-19T00:15:24;7.82;;;2.90;;
37201;SDS011;37799;52.390;6.136;2022-08-19T00:17:49;6.68;;;2.33;;
37201;SDS011;37799;52.390;6.136;2022-08-19T00:20:17;8.93;;;2.65;;
37201;SDS011;37799;52.390;6.136;2022-08-19T00:22:45;6.82;;;2.35;;
37201;SDS011;37799;52.390;6.136;2022-08-19T00:25:11;6.57;;;2.38;;
37201;SDS011;37799;52.390;6.136;2022-08-19T00:27:36;6.95;;;3.05;;
37201;SDS011;37799;52.390;6.136;2022-08-19T00:30:03;7.10;;;2.67;;
37201;SDS011;37799;52.390;6.136;2022-08-19T00:32:29;8.80;;;2.88;;
37201;SDS011;37799;52.390;6.136;2022-08-19T00:34:55;7.43;;;2.58;;
37201;SDS011;37799;52.390;6.136;2022-08-19T00:37:21;7.82;;;3.15;;
37201;SDS011;37799;52.390;6.136;2022-08-19T00:39:48;9.82;;;3.08;;
37201;SDS011;37799;52.390;6.136;2022-08-19T00:42:15;8.07;;;2.78;;
37201;SDS011;37799;52.390;6.136;2022-08-19T00:44:41;6.63;;;2.35;;
37201;SDS011;37799;52.390;6.136;2022-08-19T00:47:07;9.70;;;3.10;;
37201;SDS011;37799;52.390;6.136;2022-08-19T00:49:38;6.88;;;3.00;;
37201;SDS011;37799;52.390;6.136;2022-08-19T00:52:08;7.95;;;3.25;;
37201;SDS011;37799;52.390;6.136;2022-08-19T00:54:37;7.72;;;3.00;;
37201;SDS011;37799;52.390;6.136;2022-08-19T00:57:05;8.65;;;2.90;;
37201;SDS011;37799;52.390;6.136;2022-08-19T00:59:34;7.07;;;2.47;;
37201;SDS011;37799;52.390;6.136;2022-08-19T01:02:03;7.65;;;2.90;;
37201;SDS011;37799;52.390;6.136;2022-08-19T01:04:29;7.82;;;3.22;;
37201;SDS011;37799;52.390;6.136;2022-08-19T01:06:55;10.45;;;3.50;;
37201;SDS011;37799;52.390;6.136;2022-08-19T01:09:21;9.73;;;2.75;;
37201;SDS011;37799;52.390;6.136;2022-08-19T01:11:46;8.20;;;2.90;;
37201;SDS011;37799;52.390;6.136;2022-08-19T01:14:12;8.55;;;3.15;;
37201;SDS011;37799;52.390;6.136;2022-08-19T01:16:39;7.78;;;2.95;;
37201;SDS011;37799;52.390;6.136;2022-08-19T01:19:39;8.73;;;3.60;;
37201;SDS011;37799;52.390;6.136;2022-08-19T01:22:11;7.43;;;2.63;;
37201;SDS011;37799;52.390;6.136;2022-08-19T01:24:41;7.55;;;3.47;;
37201;SDS011;37799;52.390;6.136;2022-08-19T01:27:06;11.35;;;3.00;;
37201;SDS011;37799;52.390;6.136;2022-08-19T01:29:33;6.93;;;2.80;;
37201;SDS011;37799;52.390;6.136;2022-08-19T01:32:01;10.43;;;3.40;;
37201;SDS011;37799;52.390;6.136;2022-08-19T01:34:27;7.60;;;2.80;;
37201;SDS011;37799;52.390;6.136;2022-08-19T01:36:52;9.63;;;2.80;;
37201;SDS011;37799;52.390;6.136;2022-08-19T01:39:19;8.13;;;3.27;;
37201;SDS011;37799;52.390;6.136;2022-08-19T01:41:47;9.52;;;3.17;;
37201;SDS011;37799;52.390;6.136;2022-08-19T01:44:13;8.95;;;2.55;;
37201;SDS011;37799;52.390;6.136;2022-08-19T01:46:39;10.52;;;3.20;;
37201;SDS011;37799;52.390;6.136;2022-08-19T01:49:05;8.10;;;2.97;;
37201;SDS011;37799;52.390;6.136;2022-08-19T01:51:31;8.05;;;3.20;;
37201;SDS011;37799;52.390;6.136;2022-08-19T01:53:57;8.55;;;3.22;;
37201;SDS011;37799;52.390;6.136;2022-08-19T01:56:22;8.45;;;3.25;;
37201;SDS011;37799;52.390;6.136;2022-08-19T01:58:53;7.53;;;2.88;;
37201;SDS011;37799;52.390;6.136;2022-08-19T02:01:27;7.13;;;2.72;;
37201;SDS011;37799;52.390;6.136;2022-08-19T02:03:56;8.70;;;2.78;;
37201;SDS011;37799;52.390;6.136;2022-08-19T02:06:21;9.15;;;3.60;;
37201;SDS011;37799;52.390;6.136;2022-08-19T02:08:47;7.53;;;3.03;;
37201;SDS011;37799;52.390;6.136;2022-08-19T02:11:24;9.80;;;2.92;;
37201;SDS011;37799;52.390;6.136;2022-08-19T02:13:53;7.43;;;3.08;;
37201;SDS011;37799;52.390;6.136;2022-08-19T02:16:19;9.48;;;3.13;;
37201;SDS011;37799;52.390;6.136;2022-08-19T02:18:45;8.48;;;3.08;;
37201;SDS011;37799;52.390;6.136;2022-08-19T02:21:13;8.48;;;3.72;;
37201;SDS011;37799;52.390;6.136;2022-08-19T02:23:43;7.60;;;2.90;;
37201;SDS011;37799;52.390;6.136;2022-08-19T02:26:09;8.00;;;3.05;;
37201;SDS011;37799;52.390;6.136;2022-08-19T02:28:35;6.68;;;2.50;;
37201;SDS011;37799;52.390;6.136;2022-08-19T02:31:01;7.57;;;3.13;;
37201;SDS011;37799;52.390;6.136;2022-08-19T02:33:27;8.90;;;3.03;;
37201;SDS011;37799;52.390;6.136;2022-08-19T02:35:53;10.50;;;3.00;;
37201;SDS011;37799;52.390;6.136;2022-08-19T02:38:19;8.52;;;2.80;;
37201;SDS011;37799;52.390;6.136;2022-08-19T02:40:54;8.85;;;3.25;;
37201;SDS011;37799;52.390;6.136;2022-08-19T02:43:22;10.00;;;3.70;;
37201;SDS011;37799;52.390;6.136;2022-08-19T02:45:48;7.38;;;2.75;;
37201;SDS011;37799;52.390;6.136;2022-08-19T02:48:15;7.30;;;3.00;;
37201;SDS011;37799;52.390;6.136;2022-08-19T02:50:42;8.65;;;2.65;;
37201;SDS011;37799;52.390;6.136;2022-08-19T02:53:08;10.13;;;3.50;;
37201;SDS011;37799;52.390;6.136;2022-08-19T02:55:33;9.90;;;3.53;;
37201;SDS011;37799;52.390;6.136;2022-08-19T02:57:59;10.50;;;3.35;;
37201;SDS011;37799;52.390;6.136;2022-08-19T03:00:25;9.77;;;3.13;;
37201;SDS011;37799;52.390;6.136;2022-08-19T03:02:51;9.45;;;3.47;;
37201;SDS011;37799;52.390;6.136;2022-08-19T03:05:17;9.27;;;3.25;;
37201;SDS011;37799;52.390;6.136;2022-08-19T03:07:42;8.60;;;3.22;;
37201;SDS011;37799;52.390;6.136;2022-08-19T03:10:07;8.38;;;3.35;;
37201;SDS011;37799;52.390;6.136;2022-08-19T03:12:37;8.30;;;2.72;;
37201;SDS011;37799;52.390;6.136;2022-08-19T03:15:07;8.70;;;2.97;;
37201;SDS011;37799;52.390;6.136;2022-08-19T03:17:33;8.48;;;3.50;;
37201;SDS011;37799;52.390;6.136;2022-08-19T03:19:59;8.80;;;2.97;;
37201;SDS011;37799;52.390;6.136;2022-08-19T03:22:25;9.02;;;3.22;;
37201;SDS011;37799;52.390;6.136;2022-08-19T03:24:50;7.30;;;3.30;;
37201;SDS011;37799;52.390;6.136;2022-08-19T03:27:16;8.77;;;2.97;;
37201;SDS011;37799;52.390;6.136;2022-08-19T03:29:42;9.35;;;3.65;;
37201;SDS011;37799;52.390;6.136;2022-08-19T03:32:07;9.75;;;3.75;;
37201;SDS011;37799;52.390;6.136;2022-08-19T03:34:33;10.02;;;3.38;;
37201;SDS011;37799;52.390;6.136;2022-08-19T03:37:03;7.55;;;2.88;;
37201;SDS011;37799;52.390;6.136;2022-08-19T03:39:31;11.10;;;3.40;;
37201;SDS011;37799;52.390;6.136;2022-08-19T03:41:56;9.32;;;2.92;;
37201;SDS011;37799;52.390;6.136;2022-08-19T03:44:23;10.82;;;3.63;;
37201;SDS011;37799;52.390;6.136;2022-08-19T03:46:49;8.95;;;3.40;;
37201;SDS011;37799;52.390;6.136;2022-08-19T03:49:17;9.38;;;3.58;;
37201;SDS011;37799;52.390;6.136;2022-08-19T03:51:43;12.07;;;3.35;;
37201;SDS011;37799;52.390;6.136;2022-08-19T03:54:11;10.45;;;3.95;;
37201;SDS011;37799;52.390;6.136;2022-08-19T03:56:38;8.77;;;3.30;;
37201;SDS011;37799;52.390;6.136;2022-08-19T03:59:06;8.02;;;2.85;;
37201;SDS011;37799;52.390;6.136;2022-08-19T04:01:34;7.03;;;2.67;;
37201;SDS011;37799;52.390;6.136;2022-08-19T04:04:00;12.32;;;3.13;;
37201;SDS011;37799;52.390;6.136;2022-08-19T04:06:27;8.00;;;3.13;;
37201;SDS011;37799;52.390;6.136;2022-08-19T04:08:57;8.30;;;2.72;;
37201;SDS011;37799;52.390;6.136;2022-08-19T04:11:29;7.25;;;2.50;;
37201;SDS011;37799;52.390;6.136;2022-08-19T04:13:56;9.25;;;2.80;;
37201;SDS011;37799;52.390;6.136;2022-08-19T04:16:22;11.52;;;3.33;;
37201;SDS011;37799;52.390;6.136;2022-08-19T04:18:50;9.65;;;3.55;;
37201;SDS011;37799;52.390;6.136;2022-08-19T04:21:20;11.52;;;3.83;;
37201;SDS011;37799;52.390;6.136;2022-08-19T04:23:47;10.38;;;4.80;;
37201;SDS011;37799;52.390;6.136;2022-08-19T04:26:23;11.43;;;4.10;;
37201;SDS011;37799;52.390;6.136;2022-08-19T04:28:51;11.02;;;3.53;;
37201;SDS011;37799;52.390;6.136;2022-08-19T04:31:21;10.77;;;3.83;;
37201;SDS011;37799;52.390;6.136;2022-08-19T04:33:51;11.60;;;4.07;;
37201;SDS011;37799;52.390;6.136;2022-08-19T04:36:22;10.93;;;3.53;;
37201;SDS011;37799;52.390;6.136;2022-08-19T04:38:52;11.23;;;3.75;;
37201;SDS011;37799;52.390;6.136;2022-08-19T04:41:19;10.38;;;4.13;;
37201;SDS011;37799;52.390;6.136;2022-08-19T04:44:04;11.30;;;3.97;;
37201;SDS011;37799;52.390;6.136;2022-08-19T04:46:29;10.52;;;3.92;;
37201;SDS011;37799;52.390;6.136;2022-08-19T04:48:57;9.15;;;3.90;;
37201;SDS011;37799;52.390;6.136;2022-08-19T04:51:23;10.65;;;3.88;;
37201;SDS011;37799;52.390;6.136;2022-08-19T04:53:48;11.73;;;3.63;;
37201;SDS011;37799;52.390;6.136;2022-08-19T04:56:15;9.85;;;4.05;;
37201;SDS011;37799;52.390;6.136;2022-08-19T04:58:42;9.40;;;4.18;;
37201;SDS011;37799;52.390;6.136;2022-08-19T05:01:11;11.23;;;4.22;;
37201;SDS011;37799;52.390;6.136;2022-08-19T05:03:38;10.38;;;4.28;;
37201;SDS011;37799;52.390;6.136;2022-08-19T05:06:07;10.00;;;4.10;;
37201;SDS011;37799;52.390;6.136;2022-08-19T05:08:38;9.95;;;3.72;;
37201;SDS011;37799;52.390;6.136;2022-08-19T05:11:11;10.90;;;4.15;;
37201;SDS011;37799;52.390;6.136;2022-08-19T05:13:36;10.90;;;4.30;;
37201;SDS011;37799;52.390;6.136;2022-08-19T05:16:02;9.45;;;4.05;;
37201;SDS011;37799;52.390;6.136;2022-08-19T05:18:27;11.13;;;4.00;;
37201;SDS011;37799;52.390;6.136;2022-08-19T05:21:12;10.82;;;4.10;;
37201;SDS011;37799;52.390;6.136;2022-08-19T05:23:59;13.73;;;4.10;;
37201;SDS011;37799;52.390;6.136;2022-08-19T05:26:25;10.67;;;3.67;;
37201;SDS011;37799;52.390;6.136;2022-08-19T05:28:51;11.57;;;4.00;;
37201;SDS011;37799;52.390;6.136;2022-08-19T05:31:17;11.55;;;3.65;;
37201;SDS011;37799;52.390;6.136;2022-08-19T05:33:42;11.77;;;3.92;;
37201;SDS011;37799;52.390;6.136;2022-08-19T05:36:08;10.57;;;4.23;;
37201;SDS011;37799;52.390;6.136;2022-08-19T05:38:33;12.40;;;4.93;;
37201;SDS011;37799;52.390;6.136;2022-08-19T05:41:00;10.43;;;4.50;;
37201;SDS011;37799;52.390;6.136;2022-08-19T05:43:30;10.68;;;4.15;;
37201;SDS011;37799;52.390;6.136;2022-08-19T05:45:56;11.98;;;4.95;;
37201;SDS011;37799;52.390;6.136;2022-08-19T05:48:21;10.63;;;4.00;;
37201;SDS011;37799;52.390;6.136;2022-08-19T05:50:46;12.30;;;4.07;;
37201;SDS011;37799;52.390;6.136;2022-08-19T05:53:15;13.40;;;4.57;;
37201;SDS011;37799;52.390;6.136;2022-08-19T05:55:41;12.70;;;5.15;;
37201;SDS011;37799;52.390;6.136;2022-08-19T05:58:06;16.55;;;5.95;;
37201;SDS011;37799;52.390;6.136;2022-08-19T06:00:35;13.18;;;5.38;;
37201;SDS011;37799;52.390;6.136;2022-08-19T06:03:02;14.52;;;5.78;;
37201;SDS011;37799;52.390;6.136;2022-08-19T06:05:28;13.27;;;4.90;;
37201;SDS011;37799;52.390;6.136;2022-08-19T06:07:55;13.80;;;4.90;;
37201;SDS011;37799;52.390;6.136;2022-08-19T06:10:20;13.25;;;5.18;;
37201;SDS011;37799;52.390;6.136;2022-08-19T06:12:46;13.32;;;5.95;;
37201;SDS011;37799;52.390;6.136;2022-08-19T06:15:12;12.60;;;4.45;;
37201;SDS011;37799;52.390;6.136;2022-08-19T06:17:38;14.52;;;5.20;;
37201;SDS011;37799;52.390;6.136;2022-08-19T06:20:08;14.65;;;5.03;;
37201;SDS011;37799;52.390;6.136;2022-08-19T06:22:40;15.27;;;5.80;;
37201;SDS011;37799;52.390;6.136;2022-08-19T06:25:06;17.67;;;6.80;;
37201;SDS011;37799;52.390;6.136;2022-08-19T06:27:34;18.02;;;7.00;;
37201;SDS011;37799;52.390;6.136;2022-08-19T06:30:00;15.35;;;6.32;;
37201;SDS011;37799;52.390;6.136;2022-08-19T06:32:25;17.45;;;6.95;;
37201;SDS011;37799;52.390;6.136;2022-08-19T06:34:51;14.95;;;5.78;;
37201;SDS011;37799;52.390;6.136;2022-08-19T06:37:16;17.13;;;6.27;;
37201;SDS011;37799;52.390;6.136;2022-08-19T06:39:42;16.73;;;6.78;;
37201;SDS011;37799;52.390;6.136;2022-08-19T06:42:08;17.27;;;6.95;;
37201;SDS011;37799;52.390;6.136;2022-08-19T06:44:37;15.23;;;5.88;;
37201;SDS011;37799;52.390;6.136;2022-08-19T06:47:04;13.98;;;6.13;;
37201;SDS011;37799;52.390;6.136;2022-08-19T06:49:31;12.57;;;4.55;;
37201;SDS011;37799;52.390;6.136;2022-08-19T06:51:57;10.70;;;4.10;;
37201;SDS011;37799;52.390;6.136;2022-08-19T06:54:23;9.13;;;4.07;;
37201;SDS011;37799;52.390;6.136;2022-08-19T06:56:49;9.77;;;4.15;;
37201;SDS011;37799;52.390;6.136;2022-08-19T06:59:19;9.73;;;3.70;;
37201;SDS011;37799;52.390;6.136;2022-08-19T07:01:51;9.27;;;3.67;;
37201;SDS011;37799;52.390;6.136;2022-08-19T07:04:20;11.00;;;3.50;;
37201;SDS011;37799;52.390;6.136;2022-08-19T07:06:49;9.18;;;3.50;;
37201;SDS011;37799;52.390;6.136;2022-08-19T07:09:15;9.63;;;3.75;;
37201;SDS011;37799;52.390;6.136;2022-08-19T07:11:44;10.18;;;3.72;;
37201;SDS011;37799;52.390;6.136;2022-08-19T07:14:11;8.45;;;3.33;;
37201;SDS011;37799;52.390;6.136;2022-08-19T07:16:37;9.38;;;3.58;;
37201;SDS011;37799;52.390;6.136;2022-08-19T07:19:02;9.73;;;4.37;;
37201;SDS011;37799;52.390;6.136;2022-08-19T07:21:27;8.20;;;3.87;;
37201;SDS011;37799;52.390;6.136;2022-08-19T07:23:54;9.30;;;4.10;;
37201;SDS011;37799;52.390;6.136;2022-08-19T07:26:22;11.02;;;4.43;;
37201;SDS011;37799;52.390;6.136;2022-08-19T07:28:49;8.65;;;4.68;;
37201;SDS011;37799;52.390;6.136;2022-08-19T07:31:16;9.20;;;5.10;;
37201;SDS011;37799;52.390;6.136;2022-08-19T07:33:44;8.52;;;4.20;;
37201;SDS011;37799;52.390;6.136;2022-08-19T07:36:12;7.95;;;4.82;;
37201;SDS011;37799;52.390;6.136;2022-08-19T07:38:42;11.15;;;5.25;;
37201;SDS011;37799;52.390;6.136;2022-08-19T07:41:10;11.18;;;6.45;;
37201;SDS011;37799;52.390;6.136;2022-08-19T07:43:37;10.55;;;6.68;;
37201;SDS011;37799;52.390;6.136;2022-08-19T07:46:04;9.23;;;6.32;;
37201;SDS011;37799;52.390;6.136;2022-08-19T07:48:29;10.90;;;6.50;;
37201;SDS011;37799;52.390;6.136;2022-08-19T07:50:56;9.68;;;6.47;;
37201;SDS011;37799;52.390;6.136;2022-08-19T07:53:27;10.93;;;7.50;;
37201;SDS011;37799;52.390;6.136;2022-08-19T07:55:54;12.13;;;8.40;;
37201;SDS011;37799;52.390;6.136;2022-08-19T07:58:20;9.73;;;7.95;;
37201;SDS011;37799;52.390;6.136;2022-08-19T08:00:48;11.32;;;8.50;;
37201;SDS011;37799;52.390;6.136;2022-08-19T08:03:15;10.63;;;8.48;;
37201;SDS011;37799;52.390;6.136;2022-08-19T08:05:43;10.40;;;8.00;;
37201;SDS011;37799;52.390;6.136;2022-08-19T08:08:27;10.15;;;8.68;;
37201;SDS011;37799;52.390;6.136;2022-08-19T08:11:02;13.20;;;8.98;;
37201;SDS011;37799;52.390;6.136;2022-08-19T08:13:28;10.80;;;7.45;;
37201;SDS011;37799;52.390;6.136;2022-08-19T08:15:54;10.48;;;8.02;;
37201;SDS011;37799;52.390;6.136;2022-08-19T08:18:19;9.43;;;7.35;;
37201;SDS011;37799;52.390;6.136;2022-08-19T08:20:45;10.50;;;6.70;;
37201;SDS011;37799;52.390;6.136;2022-08-19T08:23:10;10.32;;;6.22;;
37201;SDS011;37799;52.390;6.136;2022-08-19T08:25:49;10.85;;;6.10;;
37201;SDS011;37799;52.390;6.136;2022-08-19T08:28:16;10.05;;;5.72;;
37201;SDS011;37799;52.390;6.136;2022-08-19T08:30:42;13.05;;;6.18;;
37201;SDS011;37799;52.390;6.136;2022-08-19T08:33:08;10.57;;;6.22;;
37201;SDS011;37799;52.390;6.136;2022-08-19T08:35:34;10.85;;;5.22;;
37201;SDS011;37799;52.390;6.136;2022-08-19T08:38:01;11.65;;;5.63;;
37201;SDS011;37799;52.390;6.136;2022-08-19T08:40:30;10.38;;;4.82;;
37201;SDS011;37799;52.390;6.136;2022-08-19T08:43:27;10.38;;;4.10;;
37201;SDS011;37799;52.390;6.136;2022-08-19T08:46:09;12.18;;;4.40;;
37201;SDS011;37799;52.390;6.136;2022-08-19T08:48:47;12.15;;;5.13;;
37201;SDS011;37799;52.390;6.136;2022-08-19T08:51:36;10.05;;;4.70;;
37201;SDS011;37799;52.390;6.136;2022-08-19T08:54:04;9.73;;;4.32;;
37201;SDS011;37799;52.390;6.136;2022-08-19T08:56:32;10.02;;;4.53;;
37201;SDS011;37799;52.390;6.136;2022-08-19T08:58:59;8.52;;;3.78;;
37201;SDS011;37799;52.390;6.136;2022-08-19T09:01:32;8.60;;;3.60;;
37201;SDS011;37799;52.390;6.136;2022-08-19T09:03:57;7.32;;;2.92;;
37201;SDS011;37799;52.390;6.136;2022-08-19T09:06:32;8.13;;;3.22;;
37201;SDS011;37799;52.390;6.136;2022-08-19T09:12:34;9.27;;;4.05;;
37201;SDS011;37799;52.390;6.136;2022-08-19T09:15:00;10.60;;;4.07;;
37201;SDS011;37799;52.390;6.136;2022-08-19T09:17:29;9.40;;;3.63;;
37201;SDS011;37799;52.390;6.136;2022-08-19T09:22:43;7.75;;;3.28;;
37201;SDS011;37799;52.390;6.136;2022-08-19T09:25:21;7.93;;;3.30;;
37201;SDS011;37799;52.390;6.136;2022-08-19T09:27:48;8.43;;;3.03;;
37201;SDS011;37799;52.390;6.136;2022-08-19T09:30:18;7.13;;;3.22;;
37201;SDS011;37799;52.390;6.136;2022-08-19T09:32:46;7.15;;;3.03;;
37201;SDS011;37799;52.390;6.136;2022-08-19T09:35:13;7.30;;;2.92;;
37201;SDS011;37799;52.390;6.136;2022-08-19T09:37:39;8.52;;;3.45;;
37201;SDS011;37799;52.390;6.136;2022-08-19T09:40:05;8.57;;;3.45;;
37201;SDS011;37799;52.390;6.136;2022-08-19T09:42:32;8.35;;;4.07;;
37201;SDS011;37799;52.390;6.136;2022-08-19T09:44:58;10.02;;;4.05;;
37201;SDS011;37799;52.390;6.136;2022-08-19T09:47:24;8.68;;;3.78;;
37201;SDS011;37799;52.390;6.136;2022-08-19T09:49:49;8.07;;;3.33;;
37201;SDS011;37799;52.390;6.136;2022-08-19T09:52:15;8.60;;;4.03;;
37201;SDS011;37799;52.390;6.136;2022-08-19T09:54:41;7.70;;;3.45;;
37201;SDS011;37799;52.390;6.136;2022-08-19T09:57:06;8.48;;;3.85;;
37201;SDS011;37799;52.390;6.136;2022-08-19T09:59:32;11.48;;;4.38;;
37201;SDS011;37799;52.390;6.136;2022-08-19T10:01:57;8.73;;;4.30;;
37201;SDS011;37799;52.390;6.136;2022-08-19T10:04:22;9.03;;;4.03;;
37201;SDS011;37799;52.390;6.136;2022-08-19T10:06:48;9.23;;;4.30;;
37201;SDS011;37799;52.390;6.136;2022-08-19T10:09:16;9.70;;;4.50;;
37201;SDS011;37799;52.390;6.136;2022-08-19T10:11:43;9.93;;;3.90;;
37201;SDS011;37799;52.390;6.136;2022-08-19T10:14:14;9.85;;;4.22;;
37201;SDS011;37799;52.390;6.136;2022-08-19T10:16:41;9.80;;;4.82;;
37201;SDS011;37799;52.390;6.136;2022-08-19T10:19:07;8.95;;;3.85;;
37201;SDS011;37799;52.390;6.136;2022-08-19T10:21:34;8.77;;;4.10;;
37201;SDS011;37799;52.390;6.136;2022-08-19T10:24:00;8.18;;;3.88;;
37201;SDS011;37799;52.390;6.136;2022-08-19T10:26:30;10.77;;;4.43;;
37201;SDS011;37799;52.390;6.136;2022-08-19T10:29:01;9.07;;;3.67;;
37201;SDS011;37799;52.390;6.136;2022-08-19T10:31:28;8.80;;;3.80;;
37201;SDS011;37799;52.390;6.136;2022-08-19T10:33:54;7.32;;;3.33;;
37201;SDS011;37799;52.390;6.136;2022-08-19T10:36:24;10.05;;;4.90;;
37201;SDS011;37799;52.390;6.136;2022-08-19T10:38:53;8.30;;;3.50;;
37201;SDS011;37799;52.390;6.136;2022-08-19T10:41:23;9.68;;;3.72;;
37201;SDS011;37799;52.390;6.136;2022-08-19T10:43:51;7.47;;;2.58;;
37201;SDS011;37799;52.390;6.136;2022-08-19T10:46:19;6.38;;;2.83;;
37201;SDS011;37799;52.390;6.136;2022-08-19T10:48:45;7.63;;;3.22;;
37201;SDS011;37799;52.390;6.136;2022-08-19T10:51:11;8.00;;;3.63;;
37201;SDS011;37799;52.390;6.136;2022-08-19T10:53:55;7.63;;;3.17;;
37201;SDS011;37799;52.390;6.136;2022-08-19T10:56:21;9.63;;;4.00;;
37201;SDS011;37799;52.390;6.136;2022-08-19T10:59:06;8.48;;;3.65;;
37201;SDS011;37799;52.390;6.136;2022-08-19T11:01:32;8.02;;;3.47;;
37201;SDS011;37799;52.390;6.136;2022-08-19T11:03:59;9.55;;;3.75;;
37201;SDS011;37799;52.390;6.136;2022-08-19T11:06:26;8.50;;;3.97;;
37201;SDS011;37799;52.390;6.136;2022-08-19T11:08:52;8.73;;;3.95;;
37201;SDS011;37799;52.390;6.136;2022-08-19T11:11:19;8.50;;;3.88;;
37201;SDS011;37799;52.390;6.136;2022-08-19T11:13:45;8.82;;;3.90;;
37201;SDS011;37799;52.390;6.136;2022-08-19T11:16:14;8.05;;;2.95;;
37201;SDS011;37799;52.390;6.136;2022-08-19T11:18:43;8.90;;;3.10;;
37201;SDS011;37799;52.390;6.136;2022-08-19T11:21:13;9.93;;;3.40;;
37201;SDS011;37799;52.390;6.136;2022-08-19T11:23:47;8.13;;;2.63;;
37201;SDS011;37799;52.390;6.136;2022-08-19T11:26:15;6.68;;;2.13;;
37201;SDS011;37799;52.390;6.136;2022-08-19T11:28:42;8.30;;;3.20;;
37201;SDS011;37799;52.390;6.136;2022-08-19T11:31:13;7.47;;;2.90;;
37201;SDS011;37799;52.390;6.136;2022-08-19T11:33:41;7.10;;;3.20;;
37201;SDS011;37799;52.390;6.136;2022-08-19T11:36:07;6.30;;;2.45;;
37201;SDS011;37799;52.390;6.136;2022-08-19T11:38:33;7.93;;;3.63;;
37201;SDS011;37799;52.390;6.136;2022-08-19T11:41:01;6.18;;;2.67;;
37201;SDS011;37799;52.390;6.136;2022-08-19T11:43:29;7.65;;;3.30;;
37201;SDS011;37799;52.390;6.136;2022-08-19T11:45:56;9.15;;;3.17;;
37201;SDS011;37799;52.390;6.136;2022-08-19T11:48:22;8.45;;;3.20;;
37201;SDS011;37799;52.390;6.136;2022-08-19T11:50:49;7.88;;;2.83;;
37201;SDS011;37799;52.390;6.136;2022-08-19T11:53:15;7.88;;;3.15;;
37201;SDS011;37799;52.390;6.136;2022-08-19T11:55:41;8.10;;;3.47;;
37201;SDS011;37799;52.390;6.136;2022-08-19T11:58:07;7.00;;;3.10;;
37201;SDS011;37799;52.390;6.136;2022-08-19T12:00:33;9.13;;;3.78;;
37201;SDS011;37799;52.390;6.136;2022-08-19T12:03:00;8.95;;;4.20;;
37201;SDS011;37799;52.390;6.136;2022-08-19T12:05:26;9.63;;;3.92;;
37201;SDS011;37799;52.390;6.136;2022-08-19T12:07:52;9.32;;;3.50;;
37201;SDS011;37799;52.390;6.136;2022-08-19T12:10:19;9.00;;;3.40;;
37201;SDS011;37799;52.390;6.136;2022-08-19T12:12:44;10.50;;;4.00;;
37201;SDS011;37799;52.390;6.136;2022-08-19T12:15:10;7.55;;;3.60;;
37201;SDS011;37799;52.390;6.136;2022-08-19T12:17:36;8.57;;;3.50;;
37201;SDS011;37799;52.390;6.136;2022-08-19T12:20:03;8.63;;;3.42;;
37201;SDS011;37799;52.390;6.136;2022-08-19T12:22:29;9.02;;;3.70;;
37201;SDS011;37799;52.390;6.136;2022-08-19T12:24:55;7.43;;;3.50;;
37201;SDS011;37799;52.390;6.136;2022-08-19T12:27:20;8.18;;;3.25;;
37201;SDS011;37799;52.390;6.136;2022-08-19T12:29:46;7.50;;;3.28;;
37201;SDS011;37799;52.390;6.136;2022-08-19T12:32:11;9.60;;;3.30;;
37201;SDS011;37799;52.390;6.136;2022-08-19T12:34:37;7.82;;;3.30;;
37201;SDS011;37799;52.390;6.136;2022-08-19T12:37:03;8.02;;;2.85;;
37201;SDS011;37799;52.390;6.136;2022-08-19T12:39:33;7.00;;;3.10;;
37201;SDS011;37799;52.390;6.136;2022-08-19T12:42:03;7.78;;;2.75;;
37201;SDS011;37799;52.390;6.136;2022-08-19T12:44:29;7.65;;;3.30;;
37201;SDS011;37799;52.390;6.136;2022-08-19T12:46:55;7.10;;;2.95;;
37201;SDS011;37799;52.390;6.136;2022-08-19T12:49:21;7.43;;;3.42;;
37201;SDS011;37799;52.390;6.136;2022-08-19T12:51:47;7.22;;;3.03;;
37201;SDS011;37799;52.390;6.136;2022-08-19T12:54:12;7.20;;;2.90;;
37201;SDS011;37799;52.390;6.136;2022-08-19T12:56:37;7.17;;;2.90;;
37201;SDS011;37799;52.390;6.136;2022-08-19T12:59:03;6.50;;;3.10;;
37201;SDS011;37799;52.390;6.136;2022-08-19T13:01:29;5.63;;;2.83;;
37201;SDS011;37799;52.390;6.136;2022-08-19T13:03:57;6.40;;;2.75;;
37201;SDS011;37799;52.390;6.136;2022-08-19T13:06:23;7.18;;;2.78;;
37201;SDS011;37799;52.390;6.136;2022-08-19T13:08:48;5.60;;;2.40;;
37201;SDS011;37799;52.390;6.136;2022-08-19T13:11:15;7.55;;;2.63;;
37201;SDS011;37799;52.390;6.136;2022-08-19T13:13:43;6.22;;;2.53;;
37201;SDS011;37799;52.390;6.136;2022-08-19T13:16:10;5.35;;;2.15;;
37201;SDS011;37799;52.390;6.136;2022-08-19T13:18:38;7.03;;;2.75;;
37201;SDS011;37799;52.390;6.136;2022-08-19T13:21:05;6.57;;;2.45;;
37201;SDS011;37799;52.390;6.136;2022-08-19T13:23:32;6.25;;;2.50;;
37201;SDS011;37799;52.390;6.136;2022-08-19T13:25:59;6.43;;;1.90;;
37201;SDS011;37799;52.390;6.136;2022-08-19T13:28:27;5.68;;;2.13;;
37201;SDS011;37799;52.390;6.136;2022-08-19T13:31:14;7.28;;;3.05;;
37201;SDS011;37799;52.390;6.136;2022-08-19T13:34:02;8.70;;;2.63;;
37201;SDS011;37799;52.390;6.136;2022-08-19T13:36:28;5.63;;;2.20;;
37201;SDS011;37799;52.390;6.136;2022-08-19T13:38:53;5.40;;;2.15;;
37201;SDS011;37799;52.390;6.136;2022-08-19T13:41:19;5.30;;;2.17;;
37201;SDS011;37799;52.390;6.136;2022-08-19T13:43:44;5.43;;;2.17;;
37201;SDS011;37799;52.390;6.136;2022-08-19T13:46:10;6.18;;;2.10;;
37201;SDS011;37799;52.390;6.136;2022-08-19T13:48:39;6.03;;;2.10;;
37201;SDS011;37799;52.390;6.136;2022-08-19T13:51:05;5.80;;;1.80;;
37201;SDS011;37799;52.390;6.136;2022-08-19T13:53:34;5.15;;;2.30;;
37201;SDS011;37799;52.390;6.136;2022-08-19T13:56:04;5.05;;;1.80;;
37201;SDS011;37799;52.390;6.136;2022-08-19T13:58:31;5.70;;;1.98;;
37201;SDS011;37799;52.390;6.136;2022-08-19T14:00:56;6.28;;;2.25;;
37201;SDS011;37799;52.390;6.136;2022-08-19T14:03:22;6.00;;;2.40;;
37201;SDS011;37799;52.390;6.136;2022-08-19T14:05:48;8.25;;;3.33;;
37201;SDS011;37799;52.390;6.136;2022-08-19T14:08:14;6.25;;;2.78;;
37201;SDS011;37799;52.390;6.136;2022-08-19T14:10:39;9.07;;;4.05;;
37201;SDS011;37799;52.390;6.136;2022-08-19T14:13:07;7.38;;;3.60;;
37201;SDS011;37799;52.390;6.136;2022-08-19T14:15:33;7.60;;;3.78;;
37201;SDS011;37799;52.390;6.136;2022-08-19T14:17:59;9.45;;;4.97;;
37201;SDS011;37799;52.390;6.136;2022-08-19T14:20:24;7.97;;;4.32;;
37201;SDS011;37799;52.390;6.136;2022-08-19T14:22:50;8.77;;;4.75;;
37201;SDS011;37799;52.390;6.136;2022-08-19T14:25:17;10.65;;;5.65;;
37201;SDS011;37799;52.390;6.136;2022-08-19T14:27:44;9.00;;;4.63;;
37201;SDS011;37799;52.390;6.136;2022-08-19T14:30:11;11.45;;;5.30;;
37201;SDS011;37799;52.390;6.136;2022-08-19T14:32:39;10.20;;;4.88;;
37201;SDS011;37799;52.390;6.136;2022-08-19T14:35:04;9.80;;;4.00;;
37201;SDS011;37799;52.390;6.136;2022-08-19T14:37:32;9.63;;;4.55;;
37201;SDS011;37799;52.390;6.136;2022-08-19T14:39:58;7.80;;;3.97;;
37201;SDS011;37799;52.390;6.136;2022-08-19T14:42:24;7.23;;;3.27;;
37201;SDS011;37799;52.390;6.136;2022-08-19T14:44:49;7.95;;;3.45;;
37201;SDS011;37799;52.390;6.136;2022-08-19T14:47:14;7.07;;;3.20;;
37201;SDS011;37799;52.390;6.136;2022-08-19T14:49:40;8.47;;;2.93;;
37201;SDS011;37799;52.390;6.136;2022-08-19T14:52:05;7.37;;;3.17;;